Time;durP1;ratioP1;P1;durP2;ratioP2;P2;SDS_P1;SDS_P2;PMS_P1;PMS_P2;Temp;Humidity;BMP_temperature;BMP_pressure;BME280_temperature;BME280_humidity;BME280_pressure;Samples;Min_cycle;Max_cycle;Signal;HPM_P1;HPM_P2
2022/11/03 00:00:56;;;;;;;12.45;2.83;;;9.10;99.90;;;;;;5028411;28;20067;-62
2022/11/03 00:03:21;;;;;;;12.40;3.78;;;9.20;99.90;;;;;;5027196;28;20025;-62
2022/11/03 00:06:05;;;;;;;21.58;2.55;;;9.20;99.90;;;;;;5026783;28;20032;-62
2022/11/03 00:08:37;;;;;;;11.82;2.60;;;9.20;99.90;;;;;;5027714;28;20356;-62
2022/11/03 00:11:05;;;;;;;13.32;2.78;;;9.20;99.90;;;;;;5023571;28;20025;-62
2022/11/03 00:13:30;;;;;;;16.95;3.58;;;9.20;99.90;;;;;;5025465;28;20080;-61
2022/11/03 00:15:56;;;;;;;14.63;2.63;;;9.20;99.90;;;;;;5027240;28;20396;-62
2022/11/03 00:18:21;;;;;;;7.88;2.08;;;9.20;99.90;;;;;;5026767;28;20529;-62
2022/11/03 00:20:57;;;;;;;15.18;2.78;;;9.20;99.90;;;;;;5028658;28;20024;-61
2022/11/03 00:23:25;;;;;;;11.20;3.40;;;9.20;99.90;;;;;;5024342;28;20721;-62
2022/11/03 00:25:50;;;;;;;19.38;2.85;;;9.20;99.90;;;;;;5026038;28;20424;-62
2022/11/03 00:28:16;;;;;;;21.73;2.90;;;9.30;99.90;;;;;;5027606;28;20056;-62
2022/11/03 00:30:41;;;;;;;13.40;3.28;;;9.30;99.90;;;;;;5027939;28;20017;-63
2022/11/03 00:33:07;;;;;;;13.60;2.22;;;9.40;99.90;;;;;;5028681;28;20029;-62
2022/11/03 00:35:33;;;;;;;13.82;2.72;;;9.40;99.90;;;;;;5025840;28;20041;-62
2022/11/03 00:37:58;;;;;;;15.23;2.83;;;9.50;99.90;;;;;;5028590;28;20067;-61
2022/11/03 00:40:24;;;;;;;11.32;2.03;;;9.60;99.90;;;;;;5027986;28;20017;-62
2022/11/03 00:42:49;;;;;;;17.67;2.90;;;9.70;99.90;;;;;;5028041;28;20048;-62
2022/11/03 00:45:15;;;;;;;10.73;1.90;;;9.70;99.90;;;;;;5029734;28;20068;-61
2022/11/03 00:48:28;;;;;;;21.77;2.58;;;9.80;99.90;;;;;;5028161;28;20503;-62
2022/11/03 00:50:26;;;;;;;25.20;2.67;;;9.80;99.90;;;;;;5024451;28;20070;-62
2022/11/03 00:52:52;;;;;;;12.48;2.40;;;9.80;99.90;;;;;;5026917;28;20025;-62
2022/11/03 00:55:18;;;;;;;12.13;2.53;;;9.90;99.90;;;;;;5028204;28;20032;-62
2022/11/03 00:57:44;;;;;;;22.52;2.75;;;9.80;99.90;;;;;;5027459;28;20386;-61
2022/11/03 01:00:10;;;;;;;15.77;2.40;;;9.90;99.90;;;;;;5022691;28;20564;-61
2022/11/03 01:02:36;;;;;;;22.58;2.72;;;9.90;99.90;;;;;;5011162;28;20351;-61
2022/11/03 01:07:46;;;;;;;20.83;3.42;;;9.80;99.90;;;;;;5023110;28;20060;-62
2022/11/03 01:10:11;;;;;;;15.70;2.60;;;9.90;99.90;;;;;;5024388;28;20061;-62
2022/11/03 01:12:37;;;;;;;11.18;2.08;;;9.90;99.90;;;;;;5027179;28;20503;-61
2022/11/03 01:15:03;;;;;;;16.02;2.50;;;9.90;99.90;;;;;;5026116;28;20033;-61
2022/11/03 01:17:28;;;;;;;15.32;4.07;;;10.00;99.90;;;;;;5027562;28;20021;-62
2022/11/03 01:19:54;;;;;;;21.25;3.08;;;10.00;99.90;;;;;;5027526;28;20052;-62
2022/11/03 01:22:21;;;;;;;17.10;2.88;;;10.10;99.90;;;;;;5026900;28;20029;-62
2022/11/03 01:24:47;;;;;;;13.57;3.60;;;10.10;99.90;;;;;;5027416;28;20049;-61
2022/11/03 01:27:16;;;;;;;12.13;2.13;;;10.10;99.90;;;;;;5028182;28;20103;-62
2022/11/03 01:29:41;;;;;;;14.38;2.17;;;10.10;99.90;;;;;;5026715;28;21770;-62
2022/11/03 01:32:07;;;;;;;15.60;2.72;;;10.20;99.90;;;;;;5023406;28;20038;-62
2022/11/03 01:34:33;;;;;;;11.75;2.40;;;10.20;99.90;;;;;;5029386;28;20036;-62
2022/11/03 01:36:59;;;;;;;15.88;2.33;;;10.30;99.90;;;;;;5026476;28;20029;-62
2022/11/03 01:39:24;;;;;;;17.80;2.33;;;10.30;99.90;;;;;;5026036;28;20375;-62
2022/11/03 01:41:51;;;;;;;14.30;2.33;;;10.30;99.90;;;;;;5026063;28;20375;-62
2022/11/03 01:44:24;;;;;;;15.05;2.70;;;10.30;99.90;;;;;;5027223;28;20051;-62
2022/11/03 01:46:55;;;;;;;14.55;2.10;;;10.40;99.90;;;;;;5025932;28;20022;-62
2022/11/03 01:49:36;;;;;;;14.45;2.22;;;10.30;99.90;;;;;;5027495;28;20417;-62
2022/11/03 01:52:24;;;;;;;10.93;2.38;;;10.30;99.90;;;;;;5026399;28;20472;-62
2022/11/03 01:54:57;;;;;;;14.70;3.80;;;10.30;99.90;;;;;;5024726;28;20037;-62
2022/11/03 01:57:27;;;;;;;18.15;2.63;;;10.30;99.90;;;;;;5025719;28;20033;-62
2022/11/03 01:59:56;;;;;;;16.98;2.28;;;10.30;99.90;;;;;;5026998;28;20025;-62
2022/11/03 02:02:22;;;;;;;14.07;2.60;;;10.20;99.90;;;;;;5031159;28;20032;-60
2022/11/03 02:04:48;;;;;;;16.65;3.15;;;10.20;99.90;;;;;;5029900;28;20021;-62
2022/11/03 02:07:20;;;;;;;8.05;2.40;;;10.20;99.90;;;;;;5031716;28;20682;-62
2022/11/03 02:09:46;;;;;;;22.48;2.50;;;10.10;99.90;;;;;;5030795;28;20016;-61
2022/11/03 02:12:14;;;;;;;14.35;2.90;;;10.10;99.90;;;;;;5031270;28;20025;-61
2022/11/03 02:14:44;;;;;;;29.90;2.67;;;10.10;99.90;;;;;;5030967;28;20439;-62
2022/11/03 02:17:13;;;;;;;13.93;2.45;;;10.20;99.90;;;;;;5031271;28;20419;-62
2022/11/03 02:19:46;;;;;;;11.20;2.17;;;10.10;99.90;;;;;;5028272;28;20032;-62
2022/11/03 02:22:28;;;;;;;22.88;2.88;;;10.10;99.90;;;;;;5028450;28;20426;-62
2022/11/03 02:25:33;;;;;;;7.88;2.53;;;10.10;99.90;;;;;;5028517;28;20021;-62
2022/11/03 02:27:59;;;;;;;14.55;2.78;;;10.10;99.90;;;;;;5027631;28;20044;-60
2022/11/03 02:30:29;;;;;;;18.95;3.53;;;10.00;99.90;;;;;;5029168;28;20018;-61
2022/11/03 02:33:04;;;;;;;11.40;2.70;;;10.00;99.90;;;;;;5030479;28;20467;-61
2022/11/03 02:35:44;;;;;;;17.30;2.80;;;10.00;99.90;;;;;;5010862;28;20041;-62
2022/11/03 02:38:14;;;;;;;19.92;2.65;;;10.00;99.90;;;;;;5022096;28;20468;-61
2022/11/03 02:40:45;;;;;;;15.93;2.85;;;9.90;99.90;;;;;;5023549;28;20021;-62
2022/11/03 02:43:13;;;;;;;20.27;3.25;;;9.90;99.90;;;;;;5032085;28;20071;-61
2022/11/03 02:45:40;;;;;;;16.33;3.33;;;9.80;99.90;;;;;;5027943;28;20594;-62
2022/11/03 02:48:06;;;;;;;15.60;3.38;;;9.80;99.90;;;;;;5030319;28;20017;-62
2022/11/03 02:50:33;;;;;;;10.93;2.70;;;9.80;99.90;;;;;;5028895;28;20375;-61
2022/11/03 02:52:59;;;;;;;14.93;2.90;;;9.80;99.90;;;;;;5028789;28;20037;-61
2022/11/03 02:55:34;;;;;;;15.55;3.05;;;9.80;99.90;;;;;;5028255;28;20032;-61
2022/11/03 02:58:26;;;;;;;20.02;2.78;;;9.80;99.90;;;;;;5028582;28;20033;-62
2022/11/03 03:01:03;;;;;;;12.32;2.70;;;9.80;99.90;;;;;;5027018;28;20029;-62
2022/11/03 03:03:37;;;;;;;11.07;2.03;;;9.80;99.90;;;;;;5027609;28;20108;-61
2022/11/03 03:06:08;;;;;;;16.70;2.53;;;9.80;99.90;;;;;;5027914;28;20041;-62
2022/11/03 03:08:38;;;;;;;13.93;2.30;;;9.80;99.90;;;;;;5030355;28;20026;-62
2022/11/03 03:11:05;;;;;;;14.15;2.83;;;9.80;99.90;;;;;;5027144;28;20462;-62
2022/11/03 03:13:31;;;;;;;13.30;3.05;;;9.80;99.90;;;;;;5029037;28;20013;-62
2022/11/03 03:16:18;;;;;;;23.10;3.33;;;9.90;99.90;;;;;;5022462;28;21859;-61
2022/11/03 03:19:02;;;;;;;11.25;2.10;;;9.90;99.90;;;;;;5027437;28;20096;-61
2022/11/03 03:21:32;;;;;;;26.67;3.22;;;9.90;99.90;;;;;;5027936;28;20116;-62
2022/11/03 03:24:01;;;;;;;10.43;2.90;;;9.90;99.90;;;;;;5028833;28;20083;-62
2022/11/03 03:26:31;;;;;;;21.55;3.17;;;9.90;99.90;;;;;;5025155;28;20044;-61
2022/11/03 03:29:14;;;;;;;13.43;2.72;;;10.00;99.90;;;;;;5024595;28;20022;-61
2022/11/03 03:31:46;;;;;;;14.60;3.15;;;10.00;99.90;;;;;;5029872;28;20096;-61
2022/11/03 03:34:15;;;;;;;10.60;2.72;;;10.10;99.90;;;;;;5027250;28;20415;-62
2022/11/03 03:36:43;;;;;;;12.85;2.47;;;10.10;99.90;;;;;;5031810;28;20383;-62
2022/11/03 03:39:10;;;;;;;17.20;3.45;;;10.10;99.90;;;;;;5028954;28;20025;-62
2022/11/03 03:41:36;;;;;;;21.90;5.07;;;10.10;99.90;;;;;;5028117;28;20034;-62
2022/11/03 03:44:05;;;;;;;12.57;3.58;;;10.10;99.90;;;;;;5024458;28;20025;-61
2022/11/03 03:46:38;;;;;;;22.52;2.88;;;10.10;99.90;;;;;;5026990;28;20530;-60
2022/11/03 03:49:04;;;;;;;14.68;2.83;;;10.10;99.90;;;;;;5026553;28;20097;-62
2022/11/03 03:51:30;;;;;;;12.90;2.33;;;10.10;99.90;;;;;;5023787;28;20716;-62
2022/11/03 03:53:56;;;;;;;12.02;2.60;;;10.00;99.90;;;;;;5027572;28;20075;-61
2022/11/03 03:56:47;;;;;;;11.00;2.97;;;10.00;99.90;;;;;;5027525;28;20029;-61
2022/11/03 03:59:13;;;;;;;12.25;3.50;;;10.00;99.90;;;;;;5015308;28;20037;-61
2022/11/03 04:01:38;;;;;;;12.60;3.10;;;9.90;99.90;;;;;;5026437;28;20043;-62
2022/11/03 04:04:04;;;;;;;15.40;3.00;;;9.80;99.90;;;;;;5027580;28;20034;-62
2022/11/03 04:06:30;;;;;;;11.57;2.80;;;9.80;99.90;;;;;;5028800;28;20032;-61
2022/11/03 04:08:55;;;;;;;14.25;3.30;;;9.80;99.90;;;;;;5028218;28;20025;-61
2022/11/03 04:22:17;;;;;;;17.95;3.33;;;9.80;99.90;;;;;;5027536;28;20498;-62
2022/11/03 04:24:50;;;;;;;16.17;3.25;;;9.80;99.90;;;;;;5029692;28;20061;-62
2022/11/03 04:27:27;;;;;;;17.05;3.08;;;9.80;99.90;;;;;;5027883;28;20018;-61
2022/11/03 04:29:58;;;;;;;11.38;2.58;;;9.80;99.90;;;;;;5025939;28;20052;-62
2022/11/03 04:32:24;;;;;;;16.95;3.95;;;9.90;99.90;;;;;;5028188;28;20415;-62
2022/11/03 04:34:50;;;;;;;20.02;3.03;;;9.80;99.90;;;;;;5028279;28;20036;-62
2022/11/03 04:37:16;;;;;;;18.98;3.40;;;9.90;99.90;;;;;;5026595;28;20395;-62
2022/11/03 04:39:41;;;;;;;20.63;3.20;;;9.90;99.90;;;;;;5024811;28;20488;-61
2022/11/03 04:42:19;;;;;;;11.25;2.88;;;9.90;99.90;;;;;;5027280;28;20515;-61
2022/11/03 04:44:46;;;;;;;13.45;3.33;;;9.90;99.90;;;;;;5012721;28;20096;-61
2022/11/03 04:47:13;;;;;;;8.75;2.92;;;9.90;99.90;;;;;;5026974;28;20033;-60
2022/11/03 04:49:38;;;;;;;16.40;2.97;;;9.90;99.90;;;;;;5027718;28;20519;-60
2022/11/03 04:52:30;;;;;;;12.02;2.72;;;9.90;99.90;;;;;;5027641;28;20040;-61
2022/11/03 04:54:56;;;;;;;19.20;3.28;;;9.90;99.90;;;;;;5025896;28;20175;-61
2022/11/03 04:57:21;;;;;;;12.32;3.60;;;9.80;99.90;;;;;;5026900;28;20116;-61
2022/11/03 04:59:50;;;;;;;23.60;2.97;;;9.80;99.90;;;;;;5027279;28;20152;-62
2022/11/03 05:02:18;;;;;;;10.57;2.78;;;9.80;99.90;;;;;;5027533;28;20504;-59
2022/11/03 05:04:44;;;;;;;15.05;3.33;;;9.80;99.90;;;;;;5026557;28;20025;-62
2022/11/03 05:07:34;;;;;;;19.00;3.45;;;9.80;99.90;;;;;;5027098;28;20020;-61
2022/11/03 05:10:00;;;;;;;14.25;2.38;;;9.80;99.90;;;;;;5020975;28;20044;-61
2022/11/03 05:12:27;;;;;;;12.40;2.95;;;9.90;99.90;;;;;;5026912;28;20041;-61
2022/11/03 05:14:52;;;;;;;17.40;3.15;;;9.90;99.90;;;;;;5025304;28;20715;-61
2022/11/03 05:17:22;;;;;;;16.90;2.95;;;9.90;99.90;;;;;;5027273;28;20033;-62
2022/11/03 05:19:56;;;;;;;16.77;2.97;;;9.90;99.90;;;;;;5026125;28;20578;-61
2022/11/03 05:22:27;;;;;;;14.73;2.55;;;9.90;99.90;;;;;;5026356;28;20056;-61
2022/11/03 05:24:59;;;;;;;16.83;2.83;;;9.90;99.90;;;;;;5026440;28;20037;-61
2022/11/03 05:27:25;;;;;;;13.68;3.00;;;9.90;99.90;;;;;;5027060;28;20029;-62
2022/11/03 05:29:52;;;;;;;12.88;2.97;;;10.00;99.90;;;;;;5026815;28;20018;-62
2022/11/03 05:32:23;;;;;;;15.20;3.33;;;10.00;99.90;;;;;;5027215;28;20029;-62
2022/11/03 05:34:51;;;;;;;15.88;3.30;;;10.10;99.90;;;;;;5028938;28;20561;-62
2022/11/03 05:37:32;;;;;;;14.60;3.35;;;10.10;99.90;;;;;;5027410;28;20021;-62
2022/11/03 05:40:20;;;;;;;23.13;3.47;;;10.10;99.90;;;;;;5031757;28;20475;-61
2022/11/03 05:42:48;;;;;;;8.90;2.72;;;10.20;99.90;;;;;;5030163;28;20025;-62
2022/11/03 05:45:25;;;;;;;22.50;3.00;;;10.20;99.90;;;;;;5032318;28;20056;-61
2022/11/03 05:47:54;;;;;;;21.17;3.08;;;10.20;99.90;;;;;;5028170;28;20383;-61
2022/11/03 05:50:24;;;;;;;13.30;2.35;;;10.30;99.90;;;;;;5029681;28;20535;-62
2022/11/03 05:52:53;;;;;;;19.25;2.80;;;10.30;99.90;;;;;;5031180;28;20022;-62
2022/11/03 05:55:24;;;;;;;13.77;2.67;;;10.40;99.90;;;;;;5029091;28;20730;-62
2022/11/03 05:57:51;;;;;;;21.23;3.10;;;10.40;99.90;;;;;;5030070;28;20071;-62
2022/11/03 06:00:30;;;;;;;14.75;3.35;;;10.50;99.90;;;;;;5027828;28;20091;-62
2022/11/03 06:02:56;;;;;;;11.02;2.88;;;10.50;99.90;;;;;;5029810;28;20029;-61
2022/11/03 06:05:24;;;;;;;7.78;2.78;;;10.50;99.90;;;;;;5028263;28;20017;-55
2022/11/03 06:07:55;;;;;;;8.38;2.85;;;10.50;99.90;;;;;;5024495;28;20041;-60
2022/11/03 06:10:32;;;;;;;16.23;2.55;;;10.50;99.90;;;;;;5025316;28;20120;-58
2022/11/03 06:13:07;;;;;;;19.92;2.88;;;10.50;99.90;;;;;;5029961;28;20022;-61
2022/11/03 06:15:36;;;;;;;10.52;2.83;;;10.50;99.90;;;;;;5025648;28;20025;-59
2022/11/03 06:18:17;;;;;;;14.45;2.95;;;10.50;99.90;;;;;;5030634;28;20053;-62
2022/11/03 06:20:53;;;;;;;15.68;4.05;;;10.50;99.90;;;;;;5027210;28;20030;-60
2022/11/03 06:23:20;;;;;;;15.32;3.08;;;10.50;99.90;;;;;;5030135;28;20025;-61
2022/11/03 06:25:46;;;;;;;15.43;3.00;;;10.50;99.90;;;;;;5030207;28;20056;-58
2022/11/03 06:28:38;;;;;;;11.20;2.95;;;10.50;99.90;;;;;;5031551;28;20104;-58
2022/11/03 06:31:14;;;;;;;11.10;2.83;;;10.50;99.90;;;;;;5026592;28;20513;-59
2022/11/03 06:33:40;;;;;;;13.10;2.67;;;10.50;99.90;;;;;;5031704;28;20463;-60
2022/11/03 06:36:19;;;;;;;14.90;3.00;;;10.60;99.90;;;;;;5030921;28;20013;-60
2022/11/03 06:38:57;;;;;;;10.60;2.88;;;10.60;99.90;;;;;;5027629;28;20030;-55
2022/11/03 06:41:26;;;;;;;10.30;3.10;;;10.60;99.90;;;;;;5009578;28;20017;-57
2022/11/03 06:43:51;;;;;;;13.15;2.83;;;10.60;99.90;;;;;;5029352;28;20029;-57
2022/11/03 06:46:25;;;;;;;21.40;2.97;;;10.70;99.90;;;;;;5030928;28;20480;-57
2022/11/03 06:48:53;;;;;;;13.70;3.03;;;10.70;99.90;;;;;;5031192;28;20034;-61
2022/11/03 06:51:25;;;;;;;11.50;2.75;;;10.70;99.90;;;;;;5027650;28;20464;-56
2022/11/03 06:53:52;;;;;;;6.88;2.28;;;10.70;99.90;;;;;;5030307;28;20029;-62
2022/11/03 06:56:21;;;;;;;11.05;2.95;;;10.70;99.90;;;;;;5031249;28;20014;-59
2022/11/03 06:58:48;;;;;;;9.88;2.90;;;10.70;99.90;;;;;;5031291;28;20112;-59
2022/11/03 07:01:17;;;;;;;15.00;3.15;;;10.70;99.90;;;;;;5031510;28;20423;-59
2022/11/03 07:03:43;;;;;;;11.55;2.92;;;10.70;99.90;;;;;;5031071;28;20021;-59
2022/11/03 07:06:08;;;;;;;12.82;2.83;;;10.60;99.90;;;;;;5030138;28;20348;-64
2022/11/03 07:08:46;;;;;;;13.10;2.78;;;10.60;99.90;;;;;;5029579;28;20024;-58
2022/11/03 07:11:23;;;;;;;19.52;2.95;;;10.60;99.90;;;;;;5025476;28;20020;-59
2022/11/03 07:13:52;;;;;;;14.45;2.90;;;10.60;99.90;;;;;;5028465;28;20021;-59
2022/11/03 07:16:42;;;;;;;9.65;2.65;;;10.70;99.90;;;;;;5027338;28;20056;-57
2022/11/03 07:19:20;;;;;;;10.93;2.97;;;10.80;99.90;;;;;;5018504;28;20030;-57
2022/11/03 07:21:49;;;;;;;16.65;2.47;;;10.80;99.90;;;;;;5024292;28;20391;-57
2022/11/03 07:24:17;;;;;;;14.18;3.25;;;10.80;99.90;;;;;;5026668;28;20014;-60
2022/11/03 07:26:43;;;;;;;8.07;2.30;;;10.90;99.90;;;;;;5029223;28;20024;-61
2022/11/03 07:29:20;;;;;;;13.90;3.00;;;10.90;99.90;;;;;;5028864;28;20025;-58
2022/11/03 07:31:47;;;;;;;11.52;3.08;;;11.00;99.90;;;;;;5025153;28;20447;-56
2022/11/03 07:34:19;;;;;;;14.77;2.92;;;11.10;99.90;;;;;;5030243;28;20104;-59
2022/11/03 07:36:45;;;;;;;14.40;3.35;;;11.20;99.90;;;;;;5025078;28;20022;-60
2022/11/03 07:39:15;;;;;;;16.98;3.17;;;11.20;99.90;;;;;;5027023;28;20025;-60
2022/11/03 07:41:43;;;;;;;15.88;2.70;;;11.30;99.90;;;;;;5031359;28;20041;-63
2022/11/03 07:44:20;;;;;;;18.17;3.78;;;11.40;99.90;;;;;;5030308;28;20480;-57
2022/11/03 07:46:50;;;;;;;14.55;3.55;;;11.50;99.90;;;;;;5028775;28;20014;-58
2022/11/03 07:49:34;;;;;;;14.18;2.50;;;11.50;99.90;;;;;;5034328;28;20108;-57
2022/11/03 07:52:00;;;;;;;17.13;2.73;;;11.70;99.90;;;;;;5029241;28;20033;-57
2022/11/03 07:54:32;;;;;;;19.67;3.03;;;11.80;99.90;;;;;;5031367;28;20739;-53
2022/11/03 07:57:03;;;;;;;20.30;3.55;;;11.90;99.90;;;;;;5028988;28;20395;-54
2022/11/03 07:59:39;;;;;;;16.95;3.38;;;12.00;99.90;;;;;;5012760;28;20519;-57
2022/11/03 08:02:35;;;;;;;13.65;3.33;;;12.10;99.90;;;;;;5029303;28;20501;-59
2022/11/03 08:05:03;;;;;;;14.48;3.22;;;12.20;99.90;;;;;;5011994;28;20048;-60
2022/11/03 08:07:30;;;;;;;11.02;2.88;;;12.20;99.90;;;;;;5012091;28;20017;-59
2022/11/03 08:09:56;;;;;;;13.60;2.53;;;12.30;99.90;;;;;;5026342;28;20021;-53
2022/11/03 08:12:22;;;;;;;10.85;2.97;;;12.30;99.90;;;;;;5032121;28;20036;-52
2022/11/03 08:14:51;;;;;;;13.57;3.00;;;12.30;99.90;;;;;;5014432;28;20025;-59
2022/11/03 08:17:17;;;;;;;11.40;2.92;;;12.40;99.90;;;;;;5001344;28;20056;-58
2022/11/03 08:19:43;;;;;;;15.95;2.47;;;12.40;99.90;;;;;;5029505;28;20511;-57
2022/11/03 08:22:11;;;;;;;14.85;2.97;;;12.50;99.90;;;;;;5028533;28;20496;-58
2022/11/03 08:24:40;;;;;;;14.43;2.65;;;12.50;99.90;;;;;;5031367;28;20115;-54
2022/11/03 08:27:06;;;;;;;14.60;2.85;;;12.60;99.90;;;;;;5012965;28;20109;-55
2022/11/03 08:29:32;;;;;;;16.77;2.78;;;12.60;99.90;;;;;;5012455;28;20168;-55
2022/11/03 08:31:57;;;;;;;10.05;2.63;;;12.70;99.90;;;;;;5027443;28;20148;-58
2022/11/03 08:34:23;;;;;;;18.73;2.80;;;12.80;99.90;;;;;;5029303;28;20048;-57
2022/11/03 08:36:49;;;;;;;11.27;2.45;;;12.80;99.90;;;;;;5029001;28;20029;-59
2022/11/03 08:39:14;;;;;;;10.05;2.47;;;12.90;99.90;;;;;;5029337;28;20029;-58
2022/11/03 08:41:40;;;;;;;11.27;2.58;;;13.00;99.90;;;;;;5030146;28;20038;-59
2022/11/03 08:44:05;;;;;;;18.95;3.17;;;13.00;99.90;;;;;;5028785;28;20029;-58
2022/11/03 08:46:31;;;;;;;12.63;2.10;;;13.10;99.90;;;;;;5029982;28;20096;-53
2022/11/03 08:48:57;;;;;;;13.02;2.47;;;13.20;99.90;;;;;;5028132;28;20014;-59
2022/11/03 08:51:23;;;;;;;9.60;2.55;;;13.30;99.90;;;;;;5013965;28;20100;-61
2022/11/03 08:53:52;;;;;;;10.10;2.75;;;13.30;99.90;;;;;;5034931;28;20491;-54
2022/11/03 08:56:19;;;;;;;7.32;2.20;;;13.40;99.90;;;;;;5031194;28;20535;-59
2022/11/03 08:58:53;;;;;;;9.38;2.78;;;13.50;99.90;;;;;;5032183;28;20051;-57
2022/11/03 09:01:18;;;;;;;21.33;3.00;;;13.50;99.90;;;;;;5031634;28;20022;-53
2022/11/03 09:04:13;;;;;;;7.03;1.88;;;13.60;99.90;;;;;;5750101;23;20312;-66
2022/11/03 09:06:42;;;;;;;13.60;2.80;;;13.60;99.90;;;;;;4981204;28;20470;-66
2022/11/03 09:09:07;;;;;;;13.27;2.33;;;13.70;99.90;;;;;;4988038;28;20043;-67
2022/11/03 09:11:33;;;;;;;10.38;2.78;;;13.70;99.90;;;;;;4995424;28;20037;-67
2022/11/03 09:13:58;;;;;;;9.07;2.15;;;13.80;99.90;;;;;;4991634;28;20319;-67
2022/11/03 09:16:24;;;;;;;15.38;2.30;;;13.80;99.90;;;;;;4986947;28;20968;-68
2022/11/03 09:18:49;;;;;;;13.52;2.08;;;13.80;99.90;;;;;;4993744;28;20447;-67
2022/11/03 09:21:15;;;;;;;11.32;2.05;;;13.80;99.90;;;;;;4993281;28;20030;-67
2022/11/03 09:23:41;;;;;;;17.83;2.65;;;13.80;99.90;;;;;;4992928;28;20403;-68
2022/11/03 09:26:06;;;;;;;9.30;1.77;;;13.90;99.90;;;;;;4991353;28;20050;-67
2022/11/03 09:28:32;;;;;;;13.80;1.92;;;13.90;99.90;;;;;;4993406;28;20053;-66
2022/11/03 09:30:58;;;;;;;12.85;2.67;;;13.90;99.90;;;;;;5008227;23;20042;-60
2022/11/03 09:33:23;;;;;;;18.08;2.83;;;13.90;99.90;;;;;;4985826;28;20069;-61
2022/11/03 09:35:49;;;;;;;17.17;3.00;;;13.90;99.90;;;;;;4988073;28;20465;-60
2022/11/03 09:38:14;;;;;;;17.02;3.28;;;14.00;99.90;;;;;;4990480;28;20041;-60
2022/11/03 09:40:40;;;;;;;12.60;2.85;;;14.00;99.90;;;;;;4982570;28;20538;-60
2022/11/03 09:43:06;;;;;;;16.48;3.13;;;14.00;99.90;;;;;;4990142;28;20026;-61
2022/11/03 09:45:32;;;;;;;14.00;2.58;;;14.00;99.90;;;;;;4991046;28;20027;-60
2022/11/03 09:47:58;;;;;;;13.57;2.80;;;14.00;99.90;;;;;;4987106;28;20435;-59
2022/11/03 09:50:23;;;;;;;10.18;1.92;;;14.00;99.90;;;;;;4989910;28;20428;-59
2022/11/03 09:52:54;;;;;;;8.52;1.67;;;14.00;99.90;;;;;;4985157;28;20050;-61
2022/11/03 09:55:25;;;;;;;12.32;2.45;;;14.00;99.90;;;;;;4985556;28;20403;-61
2022/11/03 09:57:57;;;;;;;11.95;2.13;;;14.00;99.90;;;;;;4991039;28;20093;-60
2022/11/03 10:00:23;;;;;;;23.33;3.08;;;14.00;99.90;;;;;;4983391;28;20089;-60
2022/11/03 10:02:53;;;;;;;13.32;2.20;;;13.90;99.90;;;;;;4987652;28;20035;-60
2022/11/03 10:05:28;;;;;;;21.58;2.30;;;13.90;99.90;;;;;;4991327;28;20030;-60
2022/11/03 10:08:07;;;;;;;14.05;2.03;;;13.70;99.90;;;;;;4991430;28;20029;-59
2022/11/03 10:10:34;;;;;;;17.83;2.40;;;13.50;99.90;;;;;;4988097;28;20093;-60
2022/11/03 10:13:00;;;;;;;10.95;2.42;;;13.60;99.90;;;;;;4989347;28;20053;-61
2022/11/03 10:15:27;;;;;;;13.90;2.25;;;13.60;99.90;;;;;;4990356;28;20037;-61
2022/11/03 10:17:54;;;;;;;13.57;3.05;;;13.60;99.90;;;;;;4988895;28;20035;-61
2022/11/03 10:20:21;;;;;;;9.50;2.90;;;13.60;99.90;;;;;;4987007;28;20795;-61
2022/11/03 10:22:52;;;;;;;8.82;2.30;;;13.70;99.90;;;;;;4987260;28;20038;-58
2022/11/03 10:25:28;;;;;;;8.07;2.53;;;13.70;99.90;;;;;;4987261;28;20029;-60
2022/11/03 10:28:14;;;;;;;13.70;2.67;;;13.90;99.90;;;;;;4989049;28;20038;-60
2022/11/03 10:30:52;;;;;;;10.90;2.58;;;13.90;99.90;;;;;;4979738;28;20085;-60
2022/11/03 10:33:35;;;;;;;15.90;3.00;;;13.90;99.90;;;;;;4984348;28;20142;-60
2022/11/03 10:36:03;;;;;;;10.18;2.50;;;14.00;99.90;;;;;;4981684;28;20045;-60
2022/11/03 10:38:31;;;;;;;18.20;2.65;;;14.00;99.90;;;;;;4983923;28;20038;-60
2022/11/03 10:41:12;;;;;;;17.13;2.75;;;14.00;99.90;;;;;;4987944;28;20026;-60
2022/11/03 10:43:43;;;;;;;16.30;2.33;;;13.90;99.90;;;;;;4983980;28;20392;-60
2022/11/03 10:46:14;;;;;;;8.93;2.50;;;13.90;99.90;;;;;;4990620;28;20034;-59
2022/11/03 10:48:40;;;;;;;16.35;2.28;;;13.90;99.90;;;;;;4985890;28;20137;-59
2022/11/03 10:51:10;;;;;;;14.68;2.63;;;13.80;99.90;;;;;;4989300;28;20105;-59
2022/11/03 10:53:36;;;;;;;14.10;3.58;;;13.80;99.90;;;;;;4989577;28;20026;-60
2022/11/03 10:56:02;;;;;;;11.80;2.00;;;13.80;99.90;;;;;;4988151;28;20372;-60
2022/11/03 10:58:29;;;;;;;12.80;3.25;;;13.80;99.90;;;;;;4984632;28;20084;-60
2022/11/03 11:00:55;;;;;;;14.82;2.53;;;13.80;99.90;;;;;;4986124;28;20042;-59
2022/11/03 11:03:20;;;;;;;7.43;2.00;;;13.80;99.90;;;;;;4985940;28;20038;-59
2022/11/03 11:05:47;;;;;;;11.02;2.20;;;13.70;99.90;;;;;;4986489;28;20026;-59
2022/11/03 11:08:21;;;;;;;13.75;2.53;;;13.80;99.90;;;;;;4984934;28;20662;-59
2022/11/03 11:10:47;;;;;;;9.80;2.05;;;13.80;99.90;;;;;;4987883;28;20054;-59
2022/11/03 11:13:25;;;;;;;8.57;1.80;;;13.70;99.90;;;;;;4987631;28;20031;-60
2022/11/03 11:16:01;;;;;;;9.43;2.13;;;13.60;99.90;;;;;;4989030;28;20030;-60
2022/11/03 11:18:26;;;;;;;14.75;2.53;;;13.70;99.90;;;;;;4985798;28;20033;-60
2022/11/03 11:20:52;;;;;;;10.75;2.00;;;13.70;99.90;;;;;;4989110;28;20035;-61
2022/11/03 11:23:26;;;;;;;10.70;2.60;;;13.70;99.90;;;;;;4990159;28;20117;-60
2022/11/03 11:26:07;;;;;;;;;;;13.70;99.90;;;;;;4983546;28;20038;-59
2022/11/03 11:28:33;;;;;;;5.57;1.83;;;13.70;99.90;;;;;;4987717;28;19972;-61
2022/11/03 11:30:58;;;;;;;12.35;2.42;;;13.70;99.90;;;;;;4979936;28;20046;-59
2022/11/03 11:33:27;;;;;;;10.63;2.10;;;13.80;99.90;;;;;;4988216;28;20108;-60
2022/11/03 11:35:52;;;;;;;9.90;2.63;;;13.80;99.90;;;;;;4982282;28;20181;-60
2022/11/03 11:38:43;;;;;;;5.93;2.05;;;13.90;99.90;;;;;;4989080;28;20539;-59
2022/11/03 11:41:09;;;;;;;12.05;2.10;;;13.80;99.90;;;;;;4982994;28;20027;-60
2022/11/03 11:43:34;;;;;;;11.43;2.58;;;13.80;99.90;;;;;;4987499;28;20034;-60
2022/11/03 11:46:22;;;;;;;16.52;2.83;;;13.80;99.90;;;;;;4986279;28;20026;-59
2022/11/03 11:49:03;;;;;;;12.18;2.10;;;13.80;99.90;;;;;;4986173;28;20042;-60
2022/11/03 11:51:33;;;;;;;7.82;3.00;;;13.80;99.90;;;;;;4986048;28;20712;-59
2022/11/03 11:54:03;;;;;;;9.98;2.38;;;13.80;99.90;;;;;;4987898;28;20154;-58
2022/11/03 11:56:28;;;;;;;18.67;2.65;;;13.80;99.90;;;;;;4986324;28;20022;-61
2022/11/03 11:58:54;;;;;;;15.63;3.30;;;13.80;99.90;;;;;;4985541;28;20059;-60
2022/11/03 12:01:26;;;;;;;11.98;2.20;;;13.80;99.90;;;;;;4985438;28;20838;-59
2022/11/03 12:03:58;;;;;;;13.35;3.05;;;13.70;99.90;;;;;;4988007;28;20061;-60
2022/11/03 12:06:37;;;;;;;11.10;2.33;;;13.60;99.90;;;;;;4983502;28;20045;-60
2022/11/03 12:09:12;;;;;;;10.35;2.83;;;13.70;99.90;;;;;;4969217;28;20097;-60
2022/11/03 12:11:53;;;;;;;18.30;3.13;;;13.60;99.90;;;;;;4979959;28;20515;-61
2022/11/03 12:14:27;;;;;;;11.60;2.38;;;13.60;99.90;;;;;;4977644;28;20535;-61
2022/11/03 12:16:54;;;;;;;14.07;2.78;;;13.60;99.90;;;;;;4983096;28;20122;-61
2022/11/03 12:19:43;;;;;;;21.13;3.45;;;13.70;99.90;;;;;;4985009;28;20023;-60
2022/11/03 12:22:10;;;;;;;12.43;2.63;;;13.60;99.90;;;;;;4982603;28;20037;-60
2022/11/03 12:25:00;;;;;;;8.50;1.95;;;13.70;99.90;;;;;;4984432;28;20042;-61
2022/11/03 12:27:25;;;;;;;11.63;2.55;;;13.70;99.90;;;;;;4966774;28;20031;-60
2022/11/03 12:29:55;;;;;;;11.43;2.70;;;13.70;99.90;;;;;;4979164;28;20096;-60
2022/11/03 12:32:22;;;;;;;10.80;1.80;;;13.70;99.90;;;;;;4972745;28;20037;-60
2022/11/03 12:34:47;;;;;;;9.85;2.30;;;13.70;99.90;;;;;;4983470;28;20026;-60
2022/11/03 12:37:13;;;;;;;11.18;2.42;;;13.70;99.90;;;;;;4983762;28;20030;-61
2022/11/03 12:39:39;;;;;;;10.18;2.20;;;13.70;99.90;;;;;;4980909;28;20038;-61
2022/11/03 12:42:05;;;;;;;10.40;2.17;;;13.70;99.90;;;;;;4980688;28;20048;-53
2022/11/03 12:44:31;;;;;;;15.15;2.70;;;13.80;99.90;;;;;;4978222;28;20291;-52
2022/11/03 12:46:57;;;;;;;8.60;2.17;;;13.80;99.90;;;;;;4979488;28;20376;-54
2022/11/03 12:49:23;;;;;;;10.77;2.13;;;13.70;99.90;;;;;;4977466;28;20398;-51
2022/11/03 12:51:48;;;;;;;10.13;2.13;;;13.70;99.90;;;;;;4980825;28;20064;-52
2022/11/03 12:54:14;;;;;;;12.98;2.55;;;13.60;99.90;;;;;;4976041;28;20113;-53
2022/11/03 12:56:39;;;;;;;7.93;2.35;;;13.60;99.90;;;;;;4980453;28;20038;-52
2022/11/03 12:59:05;;;;;;;7.75;1.80;;;13.60;99.90;;;;;;4977874;28;20038;-56
2022/11/03 13:01:32;;;;;;;11.98;3.10;;;13.70;99.90;;;;;;4978433;28;20056;-53
2022/11/03 13:03:58;;;;;;;8.70;3.00;;;13.60;99.90;;;;;;4979167;28;20101;-53
2022/11/03 13:06:23;;;;;;;8.20;2.28;;;13.60;99.90;;;;;;4981985;28;20073;-51
2022/11/03 13:08:49;;;;;;;12.10;2.53;;;13.70;99.90;;;;;;4985104;28;20042;-53